createdAt,value
2022-09-11T04:34:21.367Z,6.47
2022-09-11T04:39:44.262Z,5.80
2022-09-11T04:45:02.716Z,5.47
2022-09-11T05:02:37.455Z,5.63
2022-09-11T05:14:06.264Z,5.73
2022-09-11T05:19:46.965Z,5.73
2022-09-11T05:25:00.616Z,6.87
2022-09-11T05:35:45.264Z,7.67
2022-09-11T05:40:57.161Z,6.33
2022-09-11T05:46:03.318Z,7.50
2022-09-11T05:51:19.130Z,7.27
2022-09-11T05:57:07.424Z,7.43
2022-09-11T06:02:48.642Z,8.37
2022-09-11T06:07:59.141Z,8.33
2022-09-11T06:13:10.984Z,7.10
2022-09-11T06:18:22.109Z,6.80
2022-09-11T06:23:26.133Z,5.97
2022-09-11T06:28:52.542Z,5.57
2022-09-11T06:34:13.705Z,6.03
2022-09-11T06:45:53.909Z,6.10
2022-09-11T06:51:17.545Z,4.93
2022-09-11T06:56:21.133Z,4.87
2022-09-11T07:01:24.363Z,4.00
2022-09-11T07:06:30.340Z,4.60
2022-09-11T07:11:34.477Z,5.53
2022-09-11T07:16:37.792Z,5.90
2022-09-11T07:21:40.580Z,6.00
2022-09-11T07:26:43.297Z,5.73
2022-09-11T07:31:46.583Z,5.73
2022-09-11T07:36:53.590Z,5.67
2022-09-11T07:41:56.285Z,6.03
2022-09-11T07:46:58.996Z,7.23
2022-09-11T07:52:03.405Z,8.70
2022-09-11T07:57:06.439Z,9.47
2022-09-11T08:02:11.771Z,9.70
2022-09-11T08:07:14.678Z,9.23
2022-09-11T08:12:17.725Z,10.73
2022-09-11T08:17:20.466Z,12.63
2022-09-11T08:22:23.199Z,12.20
2022-09-11T08:27:25.970Z,10.50
2022-09-11T08:32:30.308Z,10.10
2022-09-11T08:37:38.752Z,8.70
2022-09-11T08:42:43.693Z,9.10
2022-09-11T08:47:53.887Z,7.67
2022-09-11T08:52:58.507Z,7.70
2022-09-11T08:58:38.887Z,6.97
2022-09-11T09:04:22.235Z,6.63
2022-09-11T09:09:35.252Z,6.77
2022-09-11T09:15:19.248Z,6.87
2022-09-11T09:20:34.730Z,6.93
2022-09-11T09:25:40.073Z,9.57
2022-09-11T09:30:59.999Z,7.70
2022-09-11T09:36:35.451Z,7.90
2022-09-11T09:42:22.215Z,8.60
2022-09-11T09:47:27.026Z,9.87
2022-09-11T09:52:37.373Z,10.17
2022-09-11T09:57:47.491Z,9.87
2022-09-11T10:03:41.952Z,9.40
2022-09-11T10:09:05.460Z,8.97
2022-09-11T10:14:49.748Z,7.90
2022-09-11T10:19:47.827Z,8.07
2022-09-11T10:25:28.004Z,7.70
2022-09-11T10:30:50.547Z,6.10
2022-09-11T10:36:09.651Z,5.93
2022-09-11T10:41:25.463Z,6.20
2022-09-11T10:46:44.033Z,7.50
2022-09-11T10:52:07.391Z,5.83
2022-09-11T10:57:44.849Z,5.70
2022-09-11T11:03:02.177Z,6.13
2022-09-11T11:08:12.279Z,5.80
2022-09-11T11:13:44.929Z,5.90
2022-09-11T11:19:01.619Z,6.67
2022-09-11T11:24:24.002Z,6.73
2022-09-11T11:30:04.713Z,5.40
2022-09-11T11:35:21.111Z,4.87
2022-09-11T11:40:33.771Z,4.47
2022-09-11T11:45:42.688Z,5.03
2022-09-11T11:50:55.119Z,4.50
2022-09-11T11:56:16.446Z,4.43
2022-09-11T12:01:48.347Z,4.33
2022-09-11T12:06:53.486Z,4.30
2022-09-11T12:12:08.022Z,4.37
2022-09-11T12:17:40.027Z,4.93
2022-09-11T12:22:57.465Z,4.53
2022-09-11T12:28:24.016Z,4.27
2022-09-11T12:33:47.229Z,4.90
2022-09-11T12:38:58.099Z,2.80
2022-09-11T12:44:02.066Z,2.60
2022-09-11T12:49:23.095Z,2.30
2022-09-11T12:54:44.937Z,2.50
2022-09-11T12:59:53.663Z,3.27
2022-09-11T13:05:14.504Z,2.97
2022-09-11T13:10:43.701Z,2.60
2022-09-11T13:15:47.593Z,2.83
2022-09-11T13:21:31.123Z,2.70
2022-09-11T13:26:43.197Z,2.60
2022-09-11T13:31:49.588Z,2.73
2022-09-11T13:36:56.457Z,2.60
2022-09-11T13:42:03.042Z,2.40
2022-09-11T13:47:26.555Z,3.10
2022-09-11T13:52:33.491Z,2.87
2022-09-11T13:57:54.727Z,2.73
2022-09-11T14:02:58.039Z,2.93
2022-09-11T14:08:29.272Z,3.07
2022-09-11T14:13:59.097Z,3.07
2022-09-11T14:19:11.383Z,3.20
2022-09-11T14:24:36.410Z,3.30
2022-09-11T14:29:42.853Z,2.87
2022-09-11T14:35:03.710Z,4.40
2022-09-11T14:40:29.594Z,4.87
2022-09-11T14:45:45.190Z,3.73
2022-09-11T14:50:57.618Z,3.10
2022-09-11T14:56:01.523Z,3.70
2022-09-11T15:01:04.379Z,3.40
2022-09-11T15:06:14.660Z,3.53
2022-09-11T15:11:20.051Z,3.73
2022-09-11T15:16:24.619Z,3.80
2022-09-11T15:21:37.882Z,4.47
2022-09-11T15:26:46.748Z,4.40
2022-09-11T15:32:05.321Z,4.37
2022-09-11T15:37:26.901Z,5.30
2022-09-11T15:42:42.001Z,5.17
2022-09-11T15:47:54.084Z,4.83
2022-09-11T15:53:17.171Z,4.67
2022-09-11T16:04:03.849Z,5.30
2022-09-11T16:09:29.714Z,4.83
2022-09-11T16:14:42.311Z,5.10
2022-09-11T16:20:46.308Z,5.30
2022-09-11T16:26:35.804Z,4.33
2022-09-11T16:31:51.977Z,4.83
2022-09-11T16:37:11.414Z,4.63
2022-09-11T16:48:51.870Z,5.27
2022-09-11T16:54:38.389Z,4.90
2022-09-11T16:59:54.772Z,4.90
2022-09-11T17:05:29.093Z,4.23
2022-09-11T17:10:53.437Z,4.70
2022-09-11T17:16:23.813Z,4.67
2022-09-11T17:21:46.082Z,5.00
2022-09-11T17:27:32.175Z,4.03
2022-09-11T17:32:37.671Z,3.87
2022-09-11T17:37:43.704Z,4.00
2022-09-11T17:42:50.739Z,3.40
2022-09-11T17:48:01.399Z,3.47
2022-09-11T17:53:04.906Z,3.47
2022-09-11T17:58:15.304Z,3.20
2022-09-11T18:03:25.042Z,3.60
2022-09-11T18:08:37.007Z,3.40
2022-09-11T18:13:44.691Z,3.10
2022-09-11T18:18:58.841Z,3.27
2022-09-11T18:24:06.582Z,3.50
2022-09-11T18:29:13.105Z,3.83
2022-09-11T18:34:21.988Z,4.10
2022-09-11T18:39:38.496Z,3.50
2022-09-11T18:44:44.911Z,3.97
2022-09-11T18:49:49.372Z,4.33
2022-09-11T18:54:52.819Z,3.37
2022-09-11T19:00:08.439Z,3.57
2022-09-11T19:05:19.620Z,3.50
2022-09-11T19:10:22.927Z,3.77
2022-09-11T19:15:31.468Z,3.47
2022-09-11T19:20:34.680Z,3.20
2022-09-11T19:25:38.087Z,3.57
2022-09-11T19:30:43.207Z,3.50
2022-09-11T19:35:55.788Z,3.27
2022-09-11T19:41:00.919Z,3.20
2022-09-11T19:46:13.163Z,3.20
2022-09-11T19:51:21.771Z,3.73
2022-09-11T19:56:26.084Z,5.00
2022-09-11T20:01:31.552Z,6.97
2022-09-11T20:06:37.583Z,6.07
2022-09-11T20:11:40.843Z,6.50
2022-09-11T20:16:50.949Z,6.37
2022-09-11T20:22:02.718Z,8.33
2022-09-11T20:27:08.104Z,10.53
2022-09-11T20:32:17.024Z,10.30
2022-09-11T20:37:25.388Z,11.27
2022-09-11T20:42:28.721Z,10.30
2022-09-11T20:47:31.948Z,8.43
2022-09-11T20:53:00.624Z,6.43
2022-09-11T20:58:05.686Z,6.30
2022-09-11T21:03:11.036Z,5.23
2022-09-11T21:08:20.780Z,5.13
2022-09-11T21:13:23.996Z,5.70
2022-09-11T21:18:29.399Z,6.70
2022-09-11T21:23:36.551Z,6.53
2022-09-11T21:28:41.585Z,7.30
2022-09-11T21:33:44.856Z,7.00
2022-09-11T21:38:48.996Z,8.63
2022-09-11T21:43:58.080Z,8.87
2022-09-11T21:49:05.815Z,8.77
2022-09-11T21:54:08.945Z,8.13
2022-09-11T21:59:11.974Z,8.07
2022-09-11T22:04:18.331Z,7.50
2022-09-11T22:09:21.735Z,8.70
2022-09-11T22:14:25.453Z,9.70
2022-09-11T22:19:33.585Z,10.87
2022-09-11T22:24:39.490Z,9.17
2022-09-11T22:29:49.741Z,8.93
2022-09-11T22:34:52.875Z,9.27
2022-09-11T22:39:56.807Z,9.10
2022-09-11T22:45:06.847Z,10.70
2022-09-11T22:50:13.336Z,13.43
2022-09-11T22:55:16.681Z,13.47
2022-09-11T23:00:19.991Z,15.90
2022-09-11T23:05:45.089Z,19.73
2022-09-11T23:10:53.581Z,19.23
2022-09-11T23:15:57.806Z,18.57
2022-09-11T23:21:03.174Z,18.40
2022-09-11T23:26:06.629Z,16.13
